Time;durP1;ratioP1;P1;durP2;ratioP2;P2;SDS_P1;SDS_P2;PMS_P1;PMS_P2;Temp;Humidity;BMP_temperature;BMP_pressure;BME280_temperature;BME280_humidity;BME280_pressure;Samples;Min_cycle;Max_cycle;Signal;HPM_P1;HPM_P2
2022/09/22 00:01:03;;;;;;;7.40;4.13;;;9.60;99.90;;;;;;5036940;28;20454;-82
2022/09/22 00:03:31;;;;;;;6.77;4.00;;;9.60;99.90;;;;;;5035474;28;20476;-82
2022/09/22 00:06:04;;;;;;;6.63;3.87;;;9.40;99.90;;;;;;5035579;28;20494;-83
2022/09/22 00:08:34;;;;;;;5.00;3.23;;;9.50;99.90;;;;;;5036361;28;20454;-83
2022/09/22 00:11:03;;;;;;;6.27;3.37;;;9.50;99.90;;;;;;5035719;28;21055;-82
2022/09/22 00:13:30;;;;;;;7.60;3.77;;;9.40;99.90;;;;;;5035044;28;20978;-82
2022/09/22 00:15:59;;;;;;;5.57;3.80;;;9.40;99.90;;;;;;5035846;28;20915;-82
2022/09/22 00:18:27;;;;;;;4.50;3.40;;;9.30;99.90;;;;;;5035699;28;20469;-82
2022/09/22 00:20:54;;;;;;;5.63;3.37;;;9.30;99.90;;;;;;5036133;28;20549;-82
2022/09/22 00:23:28;;;;;;;5.67;3.83;;;9.30;99.90;;;;;;5035108;28;20467;-82
2022/09/22 00:25:55;;;;;;;5.60;3.43;;;9.30;99.90;;;;;;5036057;28;20567;-82
2022/09/22 00:28:24;;;;;;;8.47;3.97;;;9.30;99.90;;;;;;5035474;28;21024;-83
2022/09/22 00:30:51;;;;;;;4.50;3.70;;;9.20;99.90;;;;;;5035651;28;20512;-82
2022/09/22 00:33:18;;;;;;;6.50;3.87;;;9.20;99.90;;;;;;5049903;28;20456;-83
2022/09/22 00:35:56;;;;;;;6.50;4.13;;;9.20;99.90;;;;;;5049579;28;20497;-83
2022/09/22 00:38:23;;;;;;;5.67;3.63;;;9.30;99.90;;;;;;5048778;28;20434;-83
2022/09/22 00:40:50;;;;;;;7.20;4.20;;;9.30;99.90;;;;;;5042913;28;20484;-82
2022/09/22 00:43:20;;;;;;;4.53;3.67;;;9.20;99.90;;;;;;5035949;28;21019;-82
2022/09/22 00:45:51;;;;;;;5.47;3.33;;;9.20;99.90;;;;;;5036456;28;20491;-82
2022/09/22 00:48:20;;;;;;;6.80;2.83;;;9.30;99.90;;;;;;5035968;28;20453;-82
2022/09/22 00:50:49;;;;;;;4.93;3.20;;;9.20;99.90;;;;;;5035724;28;20460;-80
2022/09/22 00:53:18;;;;;;;5.33;3.20;;;9.10;99.90;;;;;;5034076;28;20558;-82
2022/09/22 00:55:49;;;;;;;4.77;2.80;;;9.20;99.90;;;;;;5034945;28;21083;-83
2022/09/22 00:58:19;;;;;;;6.57;3.70;;;9.10;99.90;;;;;;5032690;28;20454;-82
2022/09/22 01:00:46;;;;;;;4.77;4.07;;;9.10;99.90;;;;;;5035555;28;20450;-82
2022/09/22 01:03:17;;;;;;;4.60;3.10;;;9.10;99.90;;;;;;5033577;28;20458;-82
2022/09/22 01:05:47;;;;;;;7.07;3.10;;;9.00;99.90;;;;;;5014863;28;20495;-82
2022/09/22 01:08:16;;;;;;;6.40;4.13;;;9.00;99.90;;;;;;5016528;28;20457;-81
2022/09/22 01:10:43;;;;;;;4.53;3.00;;;9.00;99.90;;;;;;5034674;28;20495;-82
2022/09/22 01:13:21;;;;;;;3.50;2.60;;;9.10;99.90;;;;;;5033784;28;20463;-82
2022/09/22 01:15:56;;;;;;;3.83;2.60;;;9.00;99.90;;;;;;5014680;28;20478;-82
2022/09/22 01:18:33;;;;;;;5.17;3.57;;;9.00;99.90;;;;;;5016504;28;20450;-82
2022/09/22 01:21:31;;;;;;;4.70;3.53;;;9.00;99.90;;;;;;5035054;28;20438;-82
2022/09/22 01:24:42;;;;;;;4.77;3.20;;;9.00;99.90;;;;;;5033297;28;20473;-82
2022/09/22 01:27:46;;;;;;;5.63;3.37;;;8.90;99.90;;;;;;5034527;28;20494;-82
2022/09/22 01:30:22;;;;;;;5.00;2.83;;;8.90;99.90;;;;;;5050794;28;20454;-82
2022/09/22 01:33:05;;;;;;;5.77;3.50;;;8.90;99.90;;;;;;5044579;28;20541;-82
2022/09/22 01:35:41;;;;;;;7.50;3.40;;;8.80;99.90;;;;;;5042186;28;20478;-82
2022/09/22 01:38:13;;;;;;;6.27;2.90;;;8.70;99.90;;;;;;5043107;28;20559;-82
2022/09/22 01:40:48;;;;;;;5.50;3.33;;;8.80;99.90;;;;;;5043361;28;20481;-82
2022/09/22 01:43:23;;;;;;;5.00;3.80;;;8.90;99.90;;;;;;5036282;28;20452;-81
2022/09/22 01:45:53;;;;;;;5.40;2.87;;;8.80;99.90;;;;;;5033345;28;20492;-82
2022/09/22 01:48:25;;;;;;;4.57;2.93;;;8.90;99.90;;;;;;5034902;28;20459;-82
2022/09/22 01:50:57;;;;;;;4.53;2.70;;;8.90;99.90;;;;;;5035043;28;20880;-82
2022/09/22 01:53:30;;;;;;;5.90;3.10;;;8.90;99.90;;;;;;5034310;28;20485;-82
2022/09/22 01:56:02;;;;;;;6.70;3.60;;;8.80;99.90;;;;;;5034908;28;20994;-83
2022/09/22 01:58:34;;;;;;;7.80;3.63;;;8.80;99.90;;;;;;5034306;28;20457;-80
2022/09/22 02:01:06;;;;;;;9.83;3.40;;;8.80;99.90;;;;;;5037329;28;20435;-83
2022/09/22 02:03:39;;;;;;;8.37;4.87;;;8.80;99.90;;;;;;5033757;28;20569;-83
2022/09/22 02:06:11;;;;;;;4.20;2.97;;;8.80;99.90;;;;;;5033938;28;20516;-82
2022/09/22 02:08:45;;;;;;;7.43;3.30;;;8.80;99.90;;;;;;5036949;28;20459;-82
2022/09/22 02:11:15;;;;;;;3.57;2.80;;;8.80;99.90;;;;;;5037847;28;20742;-81
2022/09/22 02:13:42;;;;;;;8.43;3.47;;;8.80;99.90;;;;;;5037316;28;20461;-82
2022/09/22 02:16:12;;;;;;;3.57;2.80;;;8.70;99.90;;;;;;5037360;28;20838;-82
2022/09/22 02:18:45;;;;;;;4.37;3.20;;;8.70;99.90;;;;;;5048084;28;20840;-83
2022/09/22 02:21:14;;;;;;;4.40;2.53;;;8.80;99.90;;;;;;5039773;28;20431;-82
2022/09/22 02:23:41;;;;;;;4.97;3.00;;;8.80;99.90;;;;;;5035679;28;20457;-82
2022/09/22 02:26:09;;;;;;;5.70;2.90;;;8.70;99.90;;;;;;5036069;28;20495;-82
2022/09/22 02:28:38;;;;;;;4.90;2.63;;;8.80;99.90;;;;;;5036124;28;20962;-82
2022/09/22 02:31:08;;;;;;;3.83;2.90;;;8.60;99.90;;;;;;5036282;28;20446;-82
2022/09/22 02:33:39;;;;;;;3.50;2.67;;;8.60;99.90;;;;;;5034654;28;20985;-82
2022/09/22 02:36:20;;;;;;;4.93;2.43;;;8.60;99.90;;;;;;5015619;28;20432;-82
2022/09/22 02:38:56;;;;;;;4.10;2.97;;;8.60;99.90;;;;;;5016771;28;20537;-83
2022/09/22 02:41:28;;;;;;;3.60;2.53;;;8.70;99.90;;;;;;5035501;28;20464;-82
2022/09/22 02:44:02;;;;;;;3.97;2.37;;;8.70;99.90;;;;;;5033866;28;20473;-82
2022/09/22 02:46:34;;;;;;;3.47;2.33;;;8.60;99.90;;;;;;5035369;28;20501;-82
2022/09/22 02:49:05;;;;;;;5.73;2.80;;;8.70;99.90;;;;;;5036940;28;20473;-82
2022/09/22 02:51:33;;;;;;;3.70;2.50;;;8.70;99.90;;;;;;5036611;28;20452;-82
2022/09/22 02:54:00;;;;;;;5.13;2.90;;;8.60;99.90;;;;;;5034695;28;20477;-82
2022/09/22 02:56:27;;;;;;;7.70;3.47;;;8.60;99.90;;;;;;5036487;28;20887;-82
2022/09/22 02:58:54;;;;;;;4.27;2.50;;;8.60;99.90;;;;;;5033627;28;20450;-82
2022/09/22 03:01:21;;;;;;;4.00;2.57;;;8.60;99.90;;;;;;5036042;28;20445;-82
2022/09/22 03:03:48;;;;;;;3.70;2.43;;;8.50;99.90;;;;;;5044458;28;20564;-82
2022/09/22 03:06:16;;;;;;;4.90;2.87;;;8.50;99.90;;;;;;5050702;28;20492;-82
2022/09/22 03:08:43;;;;;;;4.70;3.07;;;8.50;99.90;;;;;;5050055;28;20516;-83
2022/09/22 03:11:10;;;;;;;5.37;2.47;;;8.50;99.90;;;;;;5050203;28;20434;-83
2022/09/22 03:13:36;;;;;;;9.00;3.63;;;8.50;99.90;;;;;;5049333;28;20484;-82
2022/09/22 03:16:03;;;;;;;7.93;3.03;;;8.50;99.90;;;;;;5050317;28;20530;-82
2022/09/22 03:18:30;;;;;;;4.73;3.00;;;8.50;99.90;;;;;;5049801;28;20486;-83
2022/09/22 03:20:57;;;;;;;7.73;3.07;;;8.50;99.90;;;;;;5051125;28;20497;-82
2022/09/22 03:23:25;;;;;;;8.37;3.03;;;8.40;99.90;;;;;;5050724;28;20504;-82
2022/09/22 03:25:52;;;;;;;5.30;2.43;;;8.40;99.90;;;;;;5051690;28;20557;-82
2022/09/22 03:28:19;;;;;;;5.67;3.70;;;8.30;99.90;;;;;;5052324;28;20851;-81
2022/09/22 03:30:46;;;;;;;7.50;3.10;;;8.30;99.90;;;;;;5051376;28;20479;-82
2022/09/22 03:33:13;;;;;;;4.60;2.60;;;8.30;99.90;;;;;;5049445;28;20449;-82
2022/09/22 03:35:40;;;;;;;3.37;2.17;;;8.30;99.90;;;;;;5050725;28;20548;-82
2022/09/22 03:38:07;;;;;;;6.07;2.67;;;8.30;99.90;;;;;;5050531;28;20482;-82
2022/09/22 03:40:35;;;;;;;4.97;2.73;;;8.30;99.90;;;;;;5051120;28;20468;-82
2022/09/22 03:43:02;;;;;;;3.67;2.57;;;8.40;99.90;;;;;;5049835;28;20917;-82
2022/09/22 03:45:29;;;;;;;3.67;3.10;;;8.40;99.90;;;;;;5049832;28;20555;-82
2022/09/22 03:47:55;;;;;;;3.30;2.67;;;8.40;99.90;;;;;;5048460;28;20584;-82
2022/09/22 03:50:22;;;;;;;6.60;2.93;;;8.40;99.90;;;;;;5048365;28;20548;-82
2022/09/22 03:52:49;;;;;;;6.07;2.70;;;8.40;99.90;;;;;;5045660;28;20519;-82
2022/09/22 03:55:16;;;;;;;10.57;3.40;;;8.40;99.90;;;;;;5047339;28;20484;-82
2022/09/22 03:57:44;;;;;;;5.23;3.20;;;8.30;99.90;;;;;;5045446;28;20464;-82
2022/09/22 04:00:13;;;;;;;4.87;3.00;;;8.40;99.90;;;;;;5048851;28;20893;-82
2022/09/22 04:02:40;;;;;;;3.40;2.57;;;8.20;99.90;;;;;;5041297;28;20519;-79
2022/09/22 04:05:07;;;;;;;6.27;3.13;;;8.30;99.90;;;;;;5042579;28;20544;-84
2022/09/22 04:07:34;;;;;;;4.90;2.50;;;8.20;99.90;;;;;;5041132;28;20491;-85
2022/09/22 04:10:01;;;;;;;3.80;2.90;;;8.20;99.90;;;;;;5041934;28;20457;-84
2022/09/22 04:12:28;;;;;;;3.40;2.80;;;8.20;99.90;;;;;;5041915;28;20441;-85
2022/09/22 04:14:57;;;;;;;4.23;2.93;;;8.20;99.90;;;;;;5041010;28;20473;-85
2022/09/22 04:17:23;;;;;;;5.37;2.33;;;8.20;99.90;;;;;;5036506;28;20484;-84
2022/09/22 04:19:50;;;;;;;8.10;2.50;;;8.20;99.90;;;;;;5042336;28;20448;-84
2022/09/22 04:22:17;;;;;;;4.77;2.57;;;8.10;99.90;;;;;;5039135;28;20516;-84
2022/09/22 04:24:44;;;;;;;6.80;3.10;;;8.20;99.90;;;;;;5033663;28;20473;-84
2022/09/22 04:27:11;;;;;;;5.30;2.67;;;8.10;99.90;;;;;;5032926;28;20499;-85
2022/09/22 04:29:37;;;;;;;5.17;2.70;;;8.20;99.90;;;;;;5034728;28;20520;-84
2022/09/22 04:32:06;;;;;;;3.70;2.80;;;8.20;99.90;;;;;;5036754;28;20454;-84
2022/09/22 04:34:33;;;;;;;4.13;2.87;;;8.20;99.90;;;;;;5033752;28;21108;-84
2022/09/22 04:36:59;;;;;;;4.40;2.77;;;8.20;99.90;;;;;;5034595;28;20467;-84
2022/09/22 04:39:27;;;;;;;4.00;2.70;;;8.20;99.90;;;;;;5097906;22;20499;-78
2022/09/22 04:41:54;;;;;;;6.23;3.13;;;8.20;99.90;;;;;;5099876;28;20454;-79
2022/09/22 04:44:21;;;;;;;4.53;2.80;;;8.20;99.90;;;;;;5099322;28;20457;-79
2022/09/22 04:46:49;;;;;;;4.87;2.97;;;8.20;99.90;;;;;;5099630;28;20490;-78
2022/09/22 04:49:17;;;;;;;5.20;3.00;;;8.10;99.90;;;;;;5088054;28;20469;-78
2022/09/22 04:51:44;;;;;;;3.30;2.37;;;8.10;99.90;;;;;;5079076;28;20462;-79
2022/09/22 04:54:12;;;;;;;3.27;2.77;;;8.10;99.90;;;;;;5079438;28;21038;-79
2022/09/22 04:56:39;;;;;;;4.03;3.07;;;8.10;99.90;;;;;;5079532;28;20452;-78
2022/09/22 04:59:05;;;;;;;4.97;2.60;;;8.10;99.90;;;;;;5080293;28;20563;-79
2022/09/22 05:01:32;;;;;;;4.73;3.07;;;8.10;99.90;;;;;;5081084;28;20556;-79
2022/09/22 05:03:59;;;;;;;9.27;3.40;;;8.10;99.90;;;;;;5079687;28;20451;-78
2022/09/22 05:06:28;;;;;;;4.97;3.40;;;8.00;99.90;;;;;;5080836;28;20554;-78
2022/09/22 05:08:55;;;;;;;5.37;3.47;;;8.00;99.90;;;;;;5079584;28;20470;-78
2022/09/22 05:11:22;;;;;;;5.97;3.60;;;8.00;99.90;;;;;;5080299;28;20448;-78
2022/09/22 05:13:49;;;;;;;9.57;3.17;;;8.10;99.90;;;;;;5078417;28;20458;-78
2022/09/22 05:16:17;;;;;;;9.23;3.17;;;8.00;99.90;;;;;;5080295;28;20451;-79
2022/09/22 05:18:43;;;;;;;8.23;2.87;;;8.10;99.90;;;;;;5078765;28;20481;-78
2022/09/22 05:21:10;;;;;;;4.17;3.00;;;8.00;99.90;;;;;;5080162;28;20531;-78
2022/09/22 05:23:39;;;;;;;6.47;3.17;;;8.10;99.90;;;;;;5079278;28;20487;-79
2022/09/22 05:26:06;;;;;;;5.37;3.47;;;8.00;99.90;;;;;;5080346;28;20505;-79
2022/09/22 05:28:33;;;;;;;4.70;3.60;;;8.10;99.90;;;;;;5080113;28;21003;-78
2022/09/22 05:31:00;;;;;;;6.17;2.93;;;8.10;99.90;;;;;;5081045;28;20447;-79
2022/09/22 05:33:27;;;;;;;4.43;3.03;;;8.00;99.90;;;;;;5085371;28;20489;-79
2022/09/22 05:35:54;;;;;;;4.03;3.17;;;8.00;99.90;;;;;;5080387;28;20484;-79
2022/09/22 05:38:21;;;;;;;8.00;4.10;;;8.10;99.90;;;;;;5079558;28;20569;-79
2022/09/22 05:40:49;;;;;;;4.40;2.90;;;8.00;99.90;;;;;;5080223;28;20535;-78
2022/09/22 05:43:16;;;;;;;5.40;2.83;;;8.10;99.90;;;;;;5083874;28;20507;-79
2022/09/22 05:45:43;;;;;;;4.70;3.00;;;8.20;99.90;;;;;;5085780;28;20476;-79
2022/09/22 05:48:10;;;;;;;5.23;3.47;;;8.20;99.90;;;;;;5084845;28;20490;-79
2022/09/22 05:50:37;;;;;;;17.30;4.40;;;8.20;99.90;;;;;;5085119;28;20459;-79
2022/09/22 05:53:05;;;;;;;5.37;3.77;;;8.10;99.90;;;;;;5083507;28;20571;-78
2022/09/22 05:55:32;;;;;;;5.13;3.53;;;8.00;99.90;;;;;;5085600;28;20458;-79
2022/09/22 05:58:01;;;;;;;7.43;4.10;;;8.10;99.90;;;;;;5089694;28;20518;-79
2022/09/22 06:00:29;;;;;;;5.50;3.40;;;8.00;99.90;;;;;;5089336;28;20452;-79
2022/09/22 06:02:56;;;;;;;7.37;3.97;;;7.90;99.90;;;;;;5087375;28;20489;-78
2022/09/22 06:05:23;;;;;;;6.20;3.77;;;8.00;99.90;;;;;;5088665;28;20511;-79
2022/09/22 06:07:59;;;;;;;8.50;4.27;;;8.10;99.90;;;;;;5087352;28;20482;-79
2022/09/22 06:10:26;;;;;;;6.63;4.17;;;8.20;99.90;;;;;;5085386;28;20483;-79
2022/09/22 06:12:58;;;;;;;7.97;3.73;;;8.10;99.90;;;;;;5083802;28;20510;-79
2022/09/22 06:15:27;;;;;;;6.90;3.80;;;8.30;99.90;;;;;;5078051;28;20561;-79
2022/09/22 06:17:54;;;;;;;4.43;3.30;;;8.20;99.90;;;;;;5070021;28;20512;-79
2022/09/22 06:20:21;;;;;;;5.23;3.40;;;8.40;99.90;;;;;;5071763;28;20447;-79
2022/09/22 06:22:47;;;;;;;5.60;3.33;;;8.40;99.90;;;;;;5069049;28;21035;-79
2022/09/22 06:25:15;;;;;;;4.33;3.00;;;8.50;99.90;;;;;;5068329;28;20461;-79
2022/09/22 06:27:42;;;;;;;6.40;3.80;;;8.50;99.90;;;;;;5070717;28;20491;-79
2022/09/22 06:30:11;;;;;;;5.93;3.80;;;8.60;99.90;;;;;;5074744;28;20479;-78
2022/09/22 06:32:39;;;;;;;6.50;3.70;;;8.60;99.90;;;;;;5077060;28;20452;-79
2022/09/22 06:35:07;;;;;;;9.53;4.70;;;8.70;99.90;;;;;;5072450;28;20458;-80
2022/09/22 06:37:34;;;;;;;6.70;4.50;;;8.80;99.90;;;;;;5078098;28;20889;-79
2022/09/22 06:40:01;;;;;;;12.40;5.33;;;8.90;99.90;;;;;;5074055;28;20480;-79
2022/09/22 06:42:28;;;;;;;7.17;3.97;;;8.90;99.90;;;;;;5070461;28;20556;-78
2022/09/22 06:44:55;;;;;;;7.47;3.27;;;9.00;99.90;;;;;;5078596;28;21030;-79
2022/09/22 06:47:22;;;;;;;6.33;4.23;;;9.10;99.90;;;;;;5077234;28;20504;-79
2022/09/22 06:49:50;;;;;;;6.93;4.10;;;9.10;99.90;;;;;;5081444;28;20492;-80
2022/09/22 06:52:17;;;;;;;6.33;3.17;;;9.20;99.90;;;;;;5085130;28;20450;-78
2022/09/22 06:54:44;;;;;;;6.53;3.77;;;9.30;99.90;;;;;;5081081;28;20462;-78
2022/09/22 06:57:11;;;;;;;5.03;3.77;;;9.40;99.90;;;;;;5080324;28;20459;-79
2022/09/22 06:59:40;;;;;;;7.90;3.70;;;9.50;99.90;;;;;;5071802;28;20481;-78
2022/09/22 07:02:07;;;;;;;6.80;3.83;;;9.60;99.90;;;;;;5074359;28;20464;-78
2022/09/22 07:04:33;;;;;;;5.57;3.20;;;9.60;99.90;;;;;;5071318;28;20471;-79
2022/09/22 07:07:02;;;;;;;4.37;3.17;;;9.70;99.90;;;;;;5077996;28;21013;-78
2022/09/22 07:09:30;;;;;;;6.40;3.27;;;9.80;99.90;;;;;;5078896;28;20476;-79
2022/09/22 07:11:58;;;;;;;6.40;3.70;;;9.90;99.90;;;;;;5071942;28;20462;-77
2022/09/22 07:14:25;;;;;;;6.10;2.67;;;10.00;99.90;;;;;;5078115;28;20462;-79
2022/09/22 07:16:54;;;;;;;7.43;3.20;;;10.10;99.90;;;;;;5067551;28;20498;-78
2022/09/22 07:19:20;;;;;;;7.67;3.03;;;10.20;99.90;;;;;;5059295;28;20532;-78
2022/09/22 07:21:47;;;;;;;5.50;3.30;;;10.30;99.90;;;;;;5076234;28;20554;-77
2022/09/22 07:24:15;;;;;;;4.20;3.10;;;10.30;99.90;;;;;;5079584;28;20454;-79
2022/09/22 07:26:42;;;;;;;5.03;2.83;;;10.40;99.90;;;;;;5090989;28;20481;-80
2022/09/22 07:29:12;;;;;;;5.43;3.20;;;10.50;99.90;;;;;;5075072;28;20847;-79
2022/09/22 07:31:41;;;;;;;6.33;3.00;;;10.60;99.90;;;;;;5072037;28;20463;-79
2022/09/22 07:34:09;;;;;;;5.03;3.13;;;10.60;99.90;;;;;;5072426;28;20489;-79
2022/09/22 07:36:36;;;;;;;6.17;3.23;;;10.70;99.90;;;;;;5075124;28;20560;-80
2022/09/22 07:39:06;;;;;;;5.20;3.00;;;10.80;99.90;;;;;;5076266;28;20534;-79
2022/09/22 07:41:40;;;;;;;4.30;2.73;;;10.90;99.90;;;;;;5073260;28;20458;-79
2022/09/22 07:46:55;;;;;;;6.80;2.57;;;11.10;99.90;;;;;;5079386;28;20450;-79
2022/09/22 07:49:22;;;;;;;4.20;2.30;;;11.10;99.90;;;;;;5065088;28;20493;-80
2022/09/22 07:51:53;;;;;;;6.30;2.93;;;11.20;99.90;;;;;;5068535;28;20491;-80
2022/09/22 07:54:20;;;;;;;3.57;2.50;;;11.30;99.90;;;;;;5060455;28;20552;-79
2022/09/22 07:56:56;;;;;;;3.63;2.87;;;11.30;99.90;;;;;;5079417;28;20518;-79
2022/09/22 07:59:24;;;;;;;7.63;2.77;;;11.50;99.90;;;;;;5081898;28;20532;-80
2022/09/22 08:01:51;;;;;;;3.33;2.13;;;11.50;99.90;;;;;;5081604;28;20513;-79
2022/09/22 08:04:21;;;;;;;4.93;2.90;;;11.60;99.90;;;;;;5077989;28;20812;-80
2022/09/22 08:06:53;;;;;;;3.60;2.23;;;11.60;99.90;;;;;;5080619;28;21074;-81
2022/09/22 08:09:20;;;;;;;4.97;2.63;;;11.70;99.90;;;;;;5075542;28;20593;-79
2022/09/22 08:11:48;;;;;;;10.20;3.10;;;11.90;99.90;;;;;;5085812;28;20454;-81
2022/09/22 08:14:17;;;;;;;3.03;1.70;;;12.00;99.90;;;;;;5084993;28;20451;-80
2022/09/22 08:16:45;;;;;;;4.73;2.50;;;12.10;99.90;;;;;;5085476;28;20440;-79
2022/09/22 08:19:13;;;;;;;7.87;2.80;;;12.20;99.90;;;;;;5070358;28;20464;-80
2022/09/22 08:21:44;;;;;;;7.03;2.80;;;12.30;99.90;;;;;;5085666;28;20448;-80
2022/09/22 08:24:19;;;;;;;4.60;2.77;;;12.30;99.90;;;;;;5082879;28;20507;-80
2022/09/22 08:26:49;;;;;;;4.20;2.50;;;12.50;99.90;;;;;;5065095;28;20462;-80
2022/09/22 08:29:16;;;;;;;5.53;3.03;;;12.60;99.90;;;;;;5075374;28;20505;-80
2022/09/22 08:31:44;;;;;;;8.50;2.67;;;12.70;99.90;;;;;;5082946;28;20457;-79
2022/09/22 08:34:12;;;;;;;5.60;2.87;;;12.70;99.90;;;;;;5078034;28;20458;-79
2022/09/22 08:36:45;;;;;;;6.97;4.03;;;12.80;99.90;;;;;;5077958;28;20459;-79
2022/09/22 08:39:13;;;;;;;8.63;3.33;;;12.90;99.90;;;;;;5036202;28;1155737;-78
2022/09/22 08:41:55;;;;;;;5.20;2.60;;;13.00;99.90;;;;;;5070094;28;20695;-79
2022/09/22 08:44:24;;;;;;;4.93;2.23;;;13.10;99.90;;;;;;5084616;28;20492;-79
2022/09/22 08:46:54;;;;;;;4.20;2.43;;;13.20;99.90;;;;;;5085004;28;20485;-79
2022/09/22 08:52:19;;;;;;;3.77;2.80;;;13.50;99.90;;;;;;5078702;28;20491;-79
2022/09/22 08:54:47;;;;;;;5.13;2.40;;;13.60;99.90;;;;;;5083686;28;20486;-79
2022/09/22 08:57:29;;;;;;;5.43;2.50;;;13.70;99.90;;;;;;5086426;28;20482;-79
2022/09/22 09:00:02;;;;;;;5.93;2.03;;;13.80;99.90;;;;;;5084953;28;20496;-79
2022/09/22 09:02:39;;;;;;;4.13;1.47;;;14.00;99.90;;;;;;5086663;28;20477;-79
2022/09/22 09:05:38;;;;;;;3.77;1.57;;;14.10;99.90;;;;;;5084993;28;20490;-79
2022/09/22 09:08:20;;;;;;;4.70;1.30;;;14.30;99.90;;;;;;5074954;28;20620;-79
2022/09/22 09:10:56;;;;;;;2.10;1.10;;;14.50;99.90;;;;;;5073952;28;20525;-79
2022/09/22 09:13:45;;;;;;;5.20;2.33;;;14.70;99.90;;;;;;5077141;28;20463;-79
2022/09/22 09:16:33;;;;;;;3.60;1.60;;;14.80;99.90;;;;;;5076340;28;20479;-80
2022/09/22 09:19:12;;;;;;;2.37;1.10;;;15.10;99.90;;;;;;5076982;28;20467;-79
2022/09/22 09:21:43;;;;;;;3.10;1.10;;;15.30;99.90;;;;;;5079677;28;20458;-79
2022/09/22 09:24:19;;;;;;;5.10;1.10;;;15.80;99.90;;;;;;5079977;28;20485;-80
2022/09/22 09:26:51;;;;;;;2.00;1.10;;;16.00;99.90;;;;;;5079363;28;20526;-81
2022/09/22 09:29:24;;;;;;;3.10;1.10;;;16.50;99.90;;;;;;5080062;28;20470;-80
2022/09/22 09:31:53;;;;;;;3.00;1.33;;;16.90;99.90;;;;;;5080111;28;20442;-80
2022/09/22 09:34:23;;;;;;;2.23;1.30;;;17.20;99.90;;;;;;5081394;28;20509;-80
2022/09/22 09:36:54;;;;;;;2.87;1.00;;;17.40;99.90;;;;;;5080064;28;20467;-80
2022/09/22 09:39:29;;;;;;;4.50;1.10;;;17.60;99.90;;;;;;5073049;28;20511;-79
2022/09/22 09:41:57;;;;;;;2.80;1.27;;;17.60;99.90;;;;;;5075104;28;20458;-80
2022/09/22 09:44:28;;;;;;;2.63;1.20;;;17.90;99.90;;;;;;5077981;28;20450;-80
2022/09/22 09:47:02;;;;;;;2.87;1.00;;;18.00;99.90;;;;;;5084421;28;20443;-81
2022/09/22 09:49:29;;;;;;;3.30;1.10;;;18.30;99.90;;;;;;5075681;28;20493;-80
2022/09/22 09:51:58;;;;;;;2.50;1.10;;;18.40;99.90;;;;;;5087488;28;20445;-80
2022/09/22 09:54:26;;;;;;;2.87;1.40;;;18.50;99.90;;;;;;5087367;28;20488;-80
2022/09/22 09:57:08;;;;;;;6.73;1.40;;;18.40;99.90;;;;;;5082355;28;20450;-80
2022/09/22 10:02:26;;;;;;;2.67;1.30;;;19.00;99.90;;;;;;5075624;28;20443;-80
2022/09/22 10:04:55;;;;;;;2.53;1.00;;;19.20;99.90;;;;;;5077350;28;20450;-81
2022/09/22 10:07:25;;;;;;;2.60;1.07;;;19.40;99.90;;;;;;5077858;28;20473;-80
2022/09/22 10:09:54;;;;;;;3.53;1.30;;;19.70;99.90;;;;;;5077120;28;20491;-81
2022/09/22 10:12:27;;;;;;;2.50;1.10;;;19.90;99.90;;;;;;5077119;28;20465;-80
2022/09/22 10:14:57;;;;;;;2.47;1.20;;;20.00;99.90;;;;;;5076830;28;20541;-80
2022/09/22 10:17:28;;;;;;;2.80;1.30;;;20.20;99.90;;;;;;5078493;28;20484;-80
2022/09/22 10:20:16;;;;;;;2.13;1.00;;;20.10;99.90;;;;;;5077928;28;20522;-80
2022/09/22 10:22:43;;;;;;;4.37;1.00;;;20.00;99.90;;;;;;5077071;28;20443;-80
2022/09/22 10:25:21;;;;;;;2.30;1.20;;;19.60;99.90;;;;;;5077879;28;20513;-80
2022/09/22 10:28:00;;;;;;;2.10;1.00;;;19.20;99.90;;;;;;5076487;28;20449;-80
2022/09/22 10:30:31;;;;;;;2.50;1.30;;;19.30;99.90;;;;;;5087598;28;20465;-80
2022/09/22 10:33:11;;;;;;;2.70;1.10;;;19.70;99.90;;;;;;5085371;28;20492;-79
2022/09/22 10:35:39;;;;;;;2.47;1.00;;;19.70;99.90;;;;;;5078857;28;20478;-80
2022/09/22 10:38:16;;;;;;;2.20;1.00;;;19.70;99.90;;;;;;5070916;28;20539;-80
2022/09/22 10:40:47;;;;;;;2.30;1.10;;;19.50;99.90;;;;;;5077528;28;20918;-81
2022/09/22 10:43:28;;;;;;;2.23;1.13;;;19.30;99.90;;;;;;5085655;28;20885;-79
2022/09/22 10:46:20;;;;;;;2.73;1.00;;;19.60;99.90;;;;;;5080952;28;20468;-80
2022/09/22 10:48:49;;;;;;;3.00;1.17;;;19.90;99.90;;;;;;5081098;28;21212;-80
2022/09/22 10:51:28;;;;;;;2.30;1.13;;;20.20;99.90;;;;;;5066593;28;20473;-77
2022/09/22 10:54:17;;;;;;;2.80;1.07;;;20.50;99.90;;;;;;5078661;28;20460;-80
2022/09/22 10:56:48;;;;;;;2.90;1.00;;;20.60;99.90;;;;;;5090164;28;20439;-80
2022/09/22 10:59:47;;;;;;;2.77;1.07;;;20.30;99.90;;;;;;5089848;28;20471;-81
2022/09/22 11:03:05;;;;;;;2.63;1.00;;;20.00;99.90;;;;;;5086458;28;20474;-80
2022/09/22 11:14:21;;;;;;;2.70;0.97;;;18.60;99.90;;;;;;5086417;28;20438;-80
2022/09/22 11:17:09;;;;;;;2.93;1.10;;;18.60;99.90;;;;;;5087293;28;20488;-79
2022/09/22 11:19:56;;;;;;;2.80;1.50;;;18.40;99.90;;;;;;5085098;28;21116;-79
2022/09/22 11:22:53;;;;;;;2.40;1.20;;;18.70;99.90;;;;;;5089141;28;20457;-80
2022/09/22 11:25:40;;;;;;;2.37;1.10;;;19.50;99.90;;;;;;5084880;28;20502;-79
2022/09/22 11:28:27;;;;;;;2.80;1.03;;;20.10;99.90;;;;;;5080689;28;20454;-80
2022/09/22 11:30:56;;;;;;;2.40;1.10;;;20.00;99.90;;;;;;5075222;28;20443;-80
2022/09/22 11:33:49;;;;;;;2.93;1.40;;;19.70;99.90;;;;;;5083577;28;20451;-81
2022/09/22 11:36:28;;;;;;;2.90;1.10;;;19.50;99.90;;;;;;5065288;28;20906;-79
2022/09/22 11:39:17;;;;;;;2.77;1.10;;;19.30;99.90;;;;;;5071800;28;20546;-80
2022/09/22 11:41:55;;;;;;;2.60;1.10;;;19.20;99.90;;;;;;5082780;28;20428;-79
2022/09/22 11:44:38;;;;;;;2.97;1.00;;;19.40;99.90;;;;;;5083551;28;20518;-82
2022/09/22 11:47:55;;;;;;;2.17;1.13;;;20.30;99.90;;;;;;5087037;28;20443;-80
2022/09/22 11:50:43;;;;;;;2.00;0.90;;;21.50;99.90;;;;;;5046550;28;20490;-77
2022/09/22 11:53:33;;;;;;;2.10;0.90;;;21.60;99.90;;;;;;5066753;28;20561;-78
2022/09/22 11:56:18;;;;;;;2.33;1.00;;;22.00;99.90;;;;;;5082142;28;20455;-78
2022/09/22 11:58:46;;;;;;;8.50;1.10;;;22.40;99.90;;;;;;5076988;28;20859;-78
2022/09/22 12:01:18;;;;;;;2.53;0.90;;;23.00;99.90;;;;;;5064033;28;20487;-79
2022/09/22 12:03:49;;;;;;;2.03;1.00;;;22.70;99.90;;;;;;5062967;28;20541;-80
2022/09/22 12:06:19;;;;;;;3.53;1.10;;;22.30;99.90;;;;;;5066468;28;20457;-78
2022/09/22 12:08:52;;;;;;;3.10;1.00;;;21.60;99.90;;;;;;5068041;28;20492;-80
2022/09/22 12:11:22;;;;;;;2.47;0.90;;;21.10;99.90;;;;;;5076380;28;20505;-79
2022/09/22 12:13:52;;;;;;;2.00;0.90;;;20.80;99.90;;;;;;5072806;28;20460;-78
2022/09/22 12:16:30;;;;;;;5.30;1.50;;;20.40;99.90;;;;;;5075009;28;20482;-79
2022/09/22 12:19:02;;;;;;;4.83;1.00;;;20.70;99.90;;;;;;5073655;28;20472;-78
2022/09/22 12:21:48;;;;;;;2.57;0.90;;;21.50;99.90;;;;;;5077114;28;20475;-77
2022/09/22 12:24:15;;;;;;;2.30;1.00;;;21.90;99.90;;;;;;5078375;28;20455;-78
2022/09/22 12:26:46;;;;;;;1.83;0.90;;;22.60;99.90;;;;;;5066027;28;20504;-79
2022/09/22 12:29:24;;;;;;;2.27;0.90;;;22.90;99.90;;;;;;5071779;28;20479;-80
2022/09/22 12:32:10;;;;;;;2.13;0.87;;;23.20;99.90;;;;;;5086673;28;20485;-81
2022/09/22 12:34:39;;;;;;;2.10;0.90;;;23.90;99.90;;;;;;5078828;28;20470;-80
2022/09/22 12:37:11;;;;;;;2.30;1.00;;;23.90;96.70;;;;;;5084420;28;20451;-79
2022/09/22 12:39:41;;;;;;;2.30;0.90;;;24.20;99.90;;;;;;5077365;28;20483;-80
2022/09/22 12:42:24;;;;;;;2.03;1.10;;;24.50;98.70;;;;;;5075118;28;20458;-78
2022/09/22 12:44:53;;;;;;;2.10;0.90;;;24.30;99.90;;;;;;5075823;28;20485;-79
2022/09/22 12:47:24;;;;;;;2.10;0.90;;;23.40;99.40;;;;;;5077347;28;20793;-80
2022/09/22 12:49:55;;;;;;;3.30;1.10;;;23.10;97.50;;;;;;5085496;28;20573;-79
2022/09/22 12:53:03;;;;;;;2.13;1.00;;;23.70;99.90;;;;;;5074111;28;20519;-79
2022/09/22 12:55:37;;;;;;;2.30;0.97;;;24.10;99.90;;;;;;5081420;28;20485;-79
2022/09/22 12:58:41;;;;;;;2.60;0.90;;;24.20;96.80;;;;;;5074520;28;20436;-79
2022/09/22 13:01:41;;;;;;;2.70;1.10;;;24.60;99.00;;;;;;5081404;28;20452;-82
2022/09/22 13:04:17;;;;;;;2.97;0.90;;;24.90;94.90;;;;;;5024773;28;20464;-81
2022/09/22 13:06:55;;;;;;;2.57;0.90;;;25.00;99.90;;;;;;5035751;28;20473;-80
2022/09/22 13:09:27;;;;;;;3.40;1.00;;;25.00;97.40;;;;;;5067633;28;20589;-80
2022/09/22 13:12:25;;;;;;;3.27;1.00;;;24.90;90.70;;;;;;5082492;28;20451;-80
2022/09/22 13:15:17;;;;;;;2.43;1.03;;;25.10;99.80;;;;;;5074625;28;20476;-80
2022/09/22 13:17:46;;;;;;;2.00;0.90;;;25.40;96.10;;;;;;5077819;28;20926;-81
2022/09/22 13:20:21;;;;;;;3.33;1.00;;;25.50;93.80;;;;;;5077427;28;20498;-79
2022/09/22 13:22:49;;;;;;;2.00;0.90;;;25.40;96.60;;;;;;5070681;28;20446;-79
2022/09/22 13:25:22;;;;;;;4.37;1.17;;;25.40;97.80;;;;;;5070116;28;20517;-79
2022/09/22 13:27:49;;;;;;;2.00;0.87;;;25.30;96.60;;;;;;5075358;28;21011;-81
2022/09/22 13:30:17;;;;;;;2.27;1.07;;;24.90;82.80;;;;;;5074399;28;20846;-78
2022/09/22 13:32:51;;;;;;;4.83;1.20;;;25.10;93.50;;;;;;5076475;28;20491;-80
2022/09/22 13:35:26;;;;;;;2.17;1.20;;;25.20;95.40;;;;;;5071908;28;20468;-78